Time;durP1;ratioP1;P1;durP2;ratioP2;P2;SDS_P1;SDS_P2;PMS_P1;PMS_P2;Temp;Humidity;BMP_temperature;BMP_pressure;BME280_temperature;BME280_humidity;BME280_pressure;Samples;Min_cycle;Max_cycle;Signal;HPM_P1;HPM_P2
2021/03/21 00:01:49;;;;;;;46.63;19.90;;;;;;;-3.05;56.24;99406.91;124237;1108;104188;-83
2021/03/21 00:04:17;;;;;;;52.90;20.63;;;;;;;-3.06;56.60;99402.59;124229;1108;104300;-81
2021/03/21 00:06:45;;;;;;;46.10;19.53;;;;;;;-3.05;56.35;99401.70;124267;1109;104293;-81
2021/03/21 00:09:14;;;;;;;48.03;20.30;;;;;;;-3.07;56.55;99395.66;124282;1109;104392;-81
2021/03/21 00:11:45;;;;;;;44.73;18.73;;;;;;;-3.10;56.61;99393.97;124320;1109;104223;-83
2021/03/21 00:14:13;;;;;;;43.00;18.70;;;;;;;-3.14;55.69;99397.48;124237;1109;104175;-81
2021/03/21 00:16:40;;;;;;;43.42;18.87;;;;;;;-3.15;56.37;99391.40;124249;1109;104249;-84
2021/03/21 00:19:09;;;;;;;47.03;20.40;;;;;;;-3.17;56.29;99393.16;124033;1108;104303;-82
2021/03/21 00:21:37;;;;;;;51.33;20.93;;;;;;;-3.18;56.47;99386.23;124022;1109;104158;-83
2021/03/21 00:24:07;;;;;;;48.73;19.37;;;;;;;-3.19;56.21;99381.06;124012;1108;104255;-81
2021/03/21 00:26:36;;;;;;;48.80;21.13;;;;;;;-3.21;56.32;99385.41;124019;1108;104217;-81
2021/03/21 00:29:06;;;;;;;45.63;21.03;;;;;;;-3.22;56.47;99374.13;124003;1109;104261;-81
2021/03/21 00:31:34;;;;;;;46.20;21.10;;;;;;;-3.23;56.09;99371.56;124063;1109;104258;-82
2021/03/21 00:34:04;;;;;;;52.97;20.90;;;;;;;-3.22;56.31;99373.28;124088;1108;104182;-81
2021/03/21 00:36:33;;;;;;;48.27;22.00;;;;;;;-3.24;56.28;99357.67;124093;1109;104184;-81
2021/03/21 00:39:02;;;;;;;49.53;21.03;;;;;;;-3.26;56.46;99363.79;124114;1109;104246;-83
2021/03/21 00:41:36;;;;;;;54.33;21.33;;;;;;;-3.30;56.19;99352.57;124260;1109;104457;-86
2021/03/21 00:44:03;;;;;;;45.93;19.47;;;;;;;-3.30;56.21;99352.57;124166;1109;104281;-83
2021/03/21 00:46:31;;;;;;;47.63;18.80;;;;;;;-3.30;56.09;99349.97;124178;1108;104290;-84
2021/03/21 00:48:59;;;;;;;42.93;18.47;;;;;;;-3.32;55.86;99342.16;124110;1109;104290;-82
2021/03/21 00:51:26;;;;;;;44.30;18.50;;;;;;;-3.32;56.26;99342.16;124177;1109;104213;-81
2021/03/21 00:53:55;;;;;;;42.87;17.80;;;;;;;-3.32;55.70;99343.92;124146;1106;104348;-81
2021/03/21 00:56:37;;;;;;;42.17;17.70;;;;;;;-3.34;56.05;99336.12;123998;1109;104367;-82
2021/03/21 00:59:07;;;;;;;;;;;;;;;-3.35;56.23;99328.34;124029;1109;104249;-83
2021/03/21 01:01:37;;;;;;;38.87;15.83;;;;;;;-3.38;55.78;99323.17;124079;1109;104727;-81
2021/03/21 01:04:06;;;;;;;43.37;18.97;;;;;;;-3.37;56.50;99317.94;124040;1109;104251;-83
2021/03/21 01:06:35;;;;;;;41.30;17.93;;;;;;;-3.35;56.49;99321.39;124027;1109;104290;-84
2021/03/21 01:09:13;;;;;;;41.10;16.03;;;;;;;-3.36;56.14;99313.62;124060;1112;104258;-87
2021/03/21 01:11:43;;;;;;;41.10;18.10;;;;;;;-3.36;56.24;99313.62;124184;1107;104165;-87
2021/03/21 01:14:11;;;;;;;40.00;17.07;;;;;;;-3.35;55.68;99304.94;124126;1108;104153;-86
2021/03/21 01:16:42;;;;;;;41.43;17.73;;;;;;;-3.36;55.66;99301.45;124160;1106;104156;-88
2021/03/21 01:19:19;;;;;;;40.83;16.83;;;;;;;-3.34;56.09;99304.05;124131;1109;104329;-86
2021/03/21 01:21:48;;;;;;;37.70;16.70;;;;;;;-3.33;56.38;99308.37;124198;1108;104268;-86
2021/03/21 01:24:20;;;;;;;43.00;17.27;;;;;;;-3.35;56.22;99300.58;124199;1109;104280;-86
2021/03/21 01:26:51;;;;;;;46.33;17.17;;;;;;;-3.35;55.61;99295.38;124120;1108;104159;-88
2021/03/21 01:29:22;;;;;;;37.83;15.73;;;;;;;-3.38;55.67;99290.20;124274;1109;104156;-88
2021/03/21 01:31:49;;;;;;;43.90;18.10;;;;;;;-3.42;56.19;99274.67;124164;1109;104306;-87
2021/03/21 01:34:20;;;;;;;41.00;17.57;;;;;;;-3.42;55.95;99274.67;124105;1109;104230;-88
2021/03/21 01:36:47;;;;;;;39.10;16.90;;;;;;;-3.45;55.51;99278.15;124248;1109;104248;-88
2021/03/21 01:39:23;;;;;;;39.35;16.57;;;;;;;-3.48;55.97;99280.81;124190;1109;104259;-89
2021/03/21 01:42:05;;;;;;;44.23;18.00;;;;;;;-3.50;55.59;99274.77;124192;1109;104191;-87
2021/03/21 01:44:32;;;;;;;40.70;18.00;;;;;;;-3.53;55.69;99274.80;124193;1109;104341;-88
2021/03/21 01:47:28;;;;;;;48.05;20.45;;;;;;;-3.57;55.99;99265.31;124266;1106;104188;-86
2021/03/21 01:49:58;;;;;;;42.80;19.50;;;;;;;-3.62;56.14;99276.63;124138;1109;104259;-87
2021/03/21 01:52:38;;;;;;;48.80;21.17;;;;;;;-3.61;56.17;99267.08;124052;1109;104235;-87
2021/03/21 01:55:13;;;;;;;46.90;21.20;;;;;;;-3.61;56.13;99257.55;124138;1109;104287;-86
2021/03/21 01:57:42;;;;;;;50.70;24.00;;;;;;;-3.62;55.88;99262.75;124084;1109;104239;-86
2021/03/21 02:00:12;;;;;;;51.93;22.53;;;;;;;-3.63;56.33;99261.91;124030;1109;104243;-84
2021/03/21 02:02:39;;;;;;;56.30;24.27;;;;;;;-3.64;55.84;99254.98;124099;1109;104188;-84
2021/03/21 02:05:10;;;;;;;51.07;23.67;;;;;;;-3.66;56.35;99248.94;123992;1109;104311;-83
2021/03/21 02:08:15;;;;;;;53.30;24.30;;;;;;;-3.67;55.92;99244.62;124117;1109;104191;-86
2021/03/21 02:11:19;;;;;;;58.43;25.90;;;;;;;-3.70;56.34;99241.20;124062;1109;104289;-84
2021/03/21 02:13:52;;;;;;;50.87;24.87;;;;;;;-3.75;56.57;99239.52;123917;1109;104236;-83
2021/03/21 02:16:42;;;;;;;51.53;23.87;;;;;;;-3.78;56.36;99241.27;123980;1109;104309;-84
2021/03/21 02:19:32;;;;;;;60.37;26.10;;;;;;;-3.79;56.66;99223.95;124027;1108;104402;-88
2021/03/21 02:22:13;;;;;;;64.20;26.80;;;;;;;-3.81;55.88;99223.98;124122;1109;104158;-88
2021/03/21 02:25:24;;;;;;;50.33;24.23;;;;;;;-3.86;55.87;99225.78;124082;1109;104169;-88
2021/03/21 02:28:25;;;;;;;51.93;24.17;;;;;;;-3.92;56.55;99225.84;124063;1109;104166;-83
2021/03/21 02:30:58;;;;;;;59.87;24.93;;;;;;;-3.98;56.16;99218.11;124071;1109;104185;-86
2021/03/21 02:33:36;;;;;;;58.58;26.60;;;;;;;-4.02;56.22;99214.70;124083;1108;104258;-86
2021/03/21 02:36:20;;;;;;;58.13;28.27;;;;;;;-4.02;56.03;99214.70;124124;1109;104284;-85
2021/03/21 02:39:05;;;;;;;60.37;28.30;;;;;;;-4.04;56.31;99206.05;124061;1109;104405;-85
2021/03/21 02:41:46;;;;;;;55.73;25.57;;;;;;;-4.08;56.31;99207.84;124029;1109;104185;-86
2021/03/21 02:44:27;;;;;;;60.80;27.23;;;;;;;-4.12;55.95;99197.48;124114;1109;104284;-87
2021/03/21 02:47:05;;;;;;;58.53;28.07;;;;;;;-4.15;56.26;99202.70;124052;1109;104185;-88
2021/03/21 02:49:47;;;;;;;70.53;29.67;;;;;;;-4.22;56.40;99196.73;124040;1109;104224;-89
2021/03/21 02:52:34;;;;;;;58.30;28.53;;;;;;;-4.26;56.28;99192.44;124067;1108;104357;-88
2021/03/21 02:55:35;;;;;;;63.30;30.23;;;;;;;-4.29;56.45;99184.67;124113;1109;104249;-89
2021/03/21 02:58:13;;;;;;;62.90;29.30;;;;;;;-4.30;56.42;99175.16;124134;1109;104248;-88
2021/03/21 03:01:14;;;;;;;65.75;30.25;;;;;;;-4.33;56.49;99170.87;124204;1108;104162;-88
2021/03/21 03:03:48;;;;;;;63.73;28.97;;;;;;;-4.35;56.38;99172.63;124247;1108;104211;-89
2021/03/21 03:06:29;;;;;;;74.20;32.70;;;;;;;-4.34;56.52;99169.15;124248;1109;104245;-89
2021/03/21 03:09:10;;;;;;;61.63;30.07;;;;;;;-4.35;56.44;99157.89;124069;1109;104258;-90
2021/03/21 03:11:55;;;;;;;67.13;30.77;;;;;;;-4.38;56.40;99157.07;124304;1109;104361;-89
2021/03/21 03:14:36;;;;;;;63.47;31.00;;;;;;;-4.41;56.86;99155.34;124393;1108;103013;-85
2021/03/21 03:17:37;;;;;;;62.90;31.17;;;;;;;-4.43;56.42;99144.11;124133;1109;104155;-87
2021/03/21 03:20:06;;;;;;;63.50;29.55;;;;;;;-4.47;56.48;99146.77;123999;1109;104332;-86
2021/03/21 03:22:51;;;;;;;66.20;32.07;;;;;;;-4.49;56.41;99142.45;124110;1108;104243;-85
2021/03/21 03:25:26;;;;;;;62.10;28.10;;;;;;;-4.49;56.49;99142.45;124131;1109;104182;-85
2021/03/21 03:27:56;;;;;;;66.45;30.75;;;;;;;-4.50;56.58;99130.34;124089;1109;104159;-84
2021/03/21 03:30:35;;;;;;;64.40;30.37;;;;;;;-4.49;56.58;99132.06;124099;1108;104178;-84
2021/03/21 03:33:08;;;;;;;67.30;31.70;;;;;;;-4.49;56.52;99128.62;124141;1108;104230;-86
2021/03/21 03:35:36;;;;;;;;;;;;;;;-4.50;57.03;99124.31;124069;1107;104262;-85
2021/03/21 03:38:11;;;;;;;58.70;27.10;;;;;;;-4.53;56.72;99119.98;124088;1109;104255;-85
2021/03/21 03:40:43;;;;;;;57.93;27.70;;;;;;;-4.55;56.72;99113.95;124067;1109;104284;-85
2021/03/21 03:43:28;;;;;;;66.77;31.53;;;;;;;-4.57;56.74;99110.52;124197;1108;104258;-84
2021/03/21 03:46:15;;;;;;;63.20;29.40;;;;;;;-4.58;56.72;99105.35;124113;1109;104181;-84
2021/03/21 03:49:00;;;;;;;65.23;32.23;;;;;;;-4.58;56.81;99105.35;124152;1108;104181;-89
2021/03/21 03:52:07;;;;;;;63.53;30.67;;;;;;;-4.59;56.74;99098.44;124020;1109;104227;-84
2021/03/21 03:54:55;;;;;;;70.70;32.10;;;;;;;-4.63;56.72;99097.59;124191;1109;104162;-83
2021/03/21 03:57:35;;;;;;;66.43;30.63;;;;;;;-4.64;56.79;99093.27;124519;1108;104262;-84
2021/03/21 04:00:32;;;;;;;61.77;30.90;;;;;;;-4.63;56.80;99087.20;124016;1109;104188;-84
2021/03/21 04:03:04;;;;;;;60.95;30.20;;;;;;;-4.64;56.89;99080.30;124020;1109;104168;-83
2021/03/21 04:05:36;;;;;;;60.13;29.97;;;;;;;-4.67;57.03;99075.13;124073;1108;104194;-84
2021/03/21 04:08:24;;;;;;;67.97;31.87;;;;;;;-4.68;56.89;99073.41;124112;1108;104158;-85
2021/03/21 04:11:11;;;;;;;61.60;30.30;;;;;;;-4.68;56.50;99065.63;124238;1109;104226;-85
2021/03/21 04:13:55;;;;;;;60.53;29.50;;;;;;;-4.69;56.74;99054.40;124253;1109;104153;-84
2021/03/21 04:17:02;;;;;;;68.57;31.67;;;;;;;-4.70;56.90;99063.06;124068;1109;104316;-86
2021/03/21 04:19:38;;;;;;;63.00;27.60;;;;;;;-4.72;56.83;99056.19;124273;1109;104156;-85
2021/03/21 04:22:17;;;;;;;64.33;30.67;;;;;;;-4.72;56.95;99050.99;124167;1106;104256;-89
2021/03/21 04:24:57;;;;;;;63.60;31.33;;;;;;;-4.70;57.12;99049.24;124110;1109;104236;-88
2021/03/21 04:27:32;;;;;;;64.83;30.97;;;;;;;-4.70;57.30;99055.28;124162;1106;104149;-84
2021/03/21 04:30:18;;;;;;;66.40;31.23;;;;;;;-4.73;56.87;99051.87;124068;1108;104213;-85
2021/03/21 04:32:52;;;;;;;65.63;29.83;;;;;;;-4.74;57.03;99057.94;124073;1108;104291;-83
2021/03/21 04:35:39;;;;;;;64.30;28.67;;;;;;;-4.77;56.91;99047.58;124049;1108;104217;-85
2021/03/21 04:38:15;;;;;;;62.83;29.67;;;;;;;-4.83;56.88;99051.08;124104;1109;104189;-88
2021/03/21 04:40:45;;;;;;;65.43;29.87;;;;;;;-4.88;56.78;99053.73;124119;1108;104627;-87
2021/03/21 04:43:25;;;;;;;65.13;28.40;;;;;;;-4.86;57.13;99044.20;124111;1107;104175;-87
2021/03/21 04:45:58;;;;;;;65.83;31.00;;;;;;;-4.86;56.99;99040.73;124088;1108;104640;-83
2021/03/21 04:48:27;;;;;;;62.30;30.70;;;;;;;-4.85;57.34;99037.27;124366;1109;104254;-85
2021/03/21 04:51:01;;;;;;;68.00;33.63;;;;;;;-4.84;57.10;99034.67;124083;1109;104357;-84
2021/03/21 04:53:39;;;;;;;68.83;32.08;;;;;;;-4.82;57.38;99032.92;124026;1109;104249;-83
2021/03/21 04:56:23;;;;;;;73.47;31.27;;;;;;;-4.82;57.38;99026.85;123975;1109;104152;-84
2021/03/21 04:58:58;;;;;;;71.53;33.60;;;;;;;-4.81;57.22;99034.64;124887;1107;104181;-83
2021/03/21 05:01:36;;;;;;;66.10;31.80;;;;;;;-4.79;57.23;99030.30;124022;1108;104208;-84
2021/03/21 05:04:18;;;;;;;71.83;34.00;;;;;;;-4.79;57.22;99032.89;124137;1109;104265;-84
2021/03/21 05:07:01;;;;;;;67.20;32.27;;;;;;;-4.78;57.45;99033.73;124127;1109;104255;-84
2021/03/21 05:09:40;;;;;;;69.53;30.90;;;;;;;-4.78;57.50;99028.54;124073;1107;104264;-84
2021/03/21 05:12:17;;;;;;;70.00;32.67;;;;;;;-4.77;57.56;99027.66;124128;1109;104238;-86
2021/03/21 05:15:15;;;;;;;60.87;28.93;;;;;;;-4.76;57.19;99011.22;124152;1109;104268;-83
2021/03/21 05:18:19;;;;;;;67.60;31.07;;;;;;;-4.75;57.48;99019.88;124108;1109;104155;-82
2021/03/21 05:20:48;;;;;;;59.13;29.73;;;;;;;-4.75;57.42;99010.34;124015;1108;104219;-83
2021/03/21 05:23:31;;;;;;;60.97;27.70;;;;;;;-4.74;57.74;99004.27;124011;1107;104280;-82
2021/03/21 05:26:25;;;;;;;50.12;23.52;;;;;;;-4.73;57.69;99003.40;124010;1108;104184;-82
2021/03/21 05:29:20;;;;;;;63.83;30.70;;;;;;;-4.71;57.25;99006.00;124016;1109;104233;-83
2021/03/21 05:31:51;;;;;;;70.17;32.10;;;;;;;-4.68;57.50;99008.52;124083;1109;104374;-82
2021/03/21 05:34:20;;;;;;;65.87;30.23;;;;;;;-4.64;57.50;99005.02;124057;1109;104325;-87
2021/03/21 05:37:10;;;;;;;69.83;31.37;;;;;;;-4.61;57.57;99001.55;124077;1109;104226;-87
2021/03/21 05:40:02;;;;;;;65.13;31.43;;;;;;;-4.57;57.57;99001.48;124071;1109;104223;-87
2021/03/21 05:43:02;;;;;;;65.73;31.07;;;;;;;-4.51;57.40;98997.97;124077;1109;104172;-88
2021/03/21 05:46:08;;;;;;;56.90;25.03;;;;;;;-4.45;57.53;98992.67;124158;1109;104187;-86
2021/03/21 05:48:57;;;;;;;62.77;27.80;;;;;;;-4.37;57.92;98992.59;124098;1109;104326;-85
2021/03/21 05:51:59;;;;;;;60.70;28.23;;;;;;;-4.30;57.66;98986.44;124129;1108;104181;-84
2021/03/21 05:54:35;;;;;;;60.65;27.35;;;;;;;-4.22;57.85;98988.92;124080;1109;104261;-87
2021/03/21 05:57:34;;;;;;;61.03;26.70;;;;;;;-4.17;57.80;98978.45;124118;1109;104261;-86
2021/03/21 06:00:39;;;;;;;56.03;24.80;;;;;;;-4.11;57.69;98976.65;124126;1109;104188;-87
2021/03/21 06:03:26;;;;;;;53.77;24.83;;;;;;;-4.02;57.74;98977.37;124382;1109;104349;-90
2021/03/21 06:05:53;;;;;;;52.70;22.73;;;;;;;-3.95;57.70;98973.80;124297;1109;104213;-90
2021/03/21 06:08:39;;;;;;;51.50;23.67;;;;;;;-3.89;57.51;98981.51;124302;1106;104133;-85
2021/03/21 06:11:39;;;;;;;57.10;25.60;;;;;;;-3.83;57.64;98971.02;124136;1111;104256;-84
2021/03/21 06:14:36;;;;;;;55.47;26.33;;;;;;;-3.75;58.27;98971.77;124039;1109;104258;-84
2021/03/21 06:17:17;;;;;;;56.63;26.23;;;;;;;-3.71;57.62;98967.36;124083;1109;104403;-84
2021/03/21 06:20:06;;;;;;;51.13;23.03;;;;;;;-3.66;57.88;98967.28;124111;1109;104189;-84
2021/03/21 06:23:01;;;;;;;54.83;24.63;;;;;;;-3.60;57.91;98969.78;124167;1109;104258;-81
2021/03/21 06:25:50;;;;;;;53.40;24.73;;;;;;;-3.51;57.79;98963.59;124069;1108;104271;-85
2021/03/21 06:28:43;;;;;;;54.27;23.63;;;;;;;-3.41;57.94;98959.08;124020;1109;104182;-85
2021/03/21 06:31:32;;;;;;;55.20;24.93;;;;;;;-3.32;57.77;98954.56;123980;1109;105084;-84
2021/03/21 06:34:12;;;;;;;54.87;24.60;;;;;;;-3.20;57.61;98956.08;124097;1109;104204;-84
2021/03/21 06:36:46;;;;;;;43.57;21.37;;;;;;;-3.11;58.26;98951.59;124068;1109;104251;-84
2021/03/21 06:39:34;;;;;;;52.88;22.40;;;;;;;-3.06;58.22;98945.44;123939;1109;104277;-83
2021/03/21 06:42:49;;;;;;;51.50;23.60;;;;;;;-2.98;58.10;98940.06;123961;1109;104261;-83
2021/03/21 06:45:48;;;;;;;41.73;19.40;;;;;;;-2.90;58.05;98932.97;123750;1109;104348;-85
2021/03/21 06:48:34;;;;;;;46.30;23.37;;;;;;;-2.83;58.44;98928.48;123962;1108;104155;-88
2021/03/21 06:51:17;;;;;;;49.13;22.67;;;;;;;-2.74;57.82;98930.91;123986;1109;104178;-85
2021/03/21 06:53:55;;;;;;;;;;;;;;;-2.68;57.72;98927.31;124046;1108;104271;-85
2021/03/21 06:56:32;;;;;;;45.60;21.10;;;;;;;-2.65;57.80;98924.64;124052;1108;104184;-85
2021/03/21 06:59:28;;;;;;;46.50;21.57;;;;;;;-2.58;57.70;98933.17;124011;1106;104236;-85
2021/03/21 07:02:57;;;;;;;47.87;21.00;;;;;;;-2.51;58.06;98915.69;123971;1109;104238;-83
2021/03/21 07:05:25;;;;;;;48.10;23.70;;;;;;;-2.40;58.75;98903.26;123985;1109;104175;-80
2021/03/21 07:08:24;;;;;;;48.30;21.95;;;;;;;-2.32;58.15;98892.69;123986;1108;104156;-75
2021/03/21 07:11:30;;;;;;;41.70;18.90;;;;;;;-2.25;57.74;98905.52;123957;1106;104261;-79
2021/03/21 07:14:35;;;;;;;46.97;21.23;;;;;;;-2.19;58.35;98888.03;123972;1109;104232;-79
2021/03/21 07:17:29;;;;;;;44.23;20.53;;;;;;;-2.11;58.02;98888.72;123915;1109;104265;-82
2021/03/21 07:20:15;;;;;;;41.07;19.47;;;;;;;-2.02;58.19;98888.47;123908;1108;104287;-77
2021/03/21 07:23:04;;;;;;;44.53;20.53;;;;;;;-1.93;58.11;98886.54;123928;1109;104252;-83
2021/03/21 07:26:16;;;;;;;38.70;17.57;;;;;;;-1.87;58.71;98866.41;124095;1109;102150;-78
2021/03/21 07:28:52;;;;;;;43.73;19.87;;;;;;;-1.80;57.78;98865.33;124193;1108;104338;-83
2021/03/21 07:32:00;;;;;;;42.90;19.43;;;;;;;-1.73;58.70;98873.87;124054;1109;104181;-78
2021/03/21 07:34:53;;;;;;;43.07;19.87;;;;;;;-1.67;58.72;98859.80;124016;1107;104255;-81
2021/03/21 07:37:31;;;;;;;42.60;19.27;;;;;;;-1.59;58.60;98860.47;124035;1109;104165;-81
2021/03/21 07:40:23;;;;;;;43.47;18.97;;;;;;;-1.49;58.31;98848.03;124128;1109;104615;-84
2021/03/21 07:43:11;;;;;;;40.23;20.73;;;;;;;-1.41;58.32;98848.68;123979;1109;104334;-85
2021/03/21 07:46:06;;;;;;;37.33;19.23;;;;;;;-1.29;58.40;98841.42;123893;1109;104715;-82
2021/03/21 07:48:52;;;;;;;35.27;16.23;;;;;;;-1.15;58.47;98823.59;124039;1108;104338;-89
2021/03/21 07:51:33;;;;;;;39.67;16.60;;;;;;;-0.96;58.02;98829.13;124241;1108;104344;-81
2021/03/21 07:54:08;;;;;;;35.30;15.67;;;;;;;-0.70;58.65;98826.64;123920;1109;104159;-85
2021/03/21 07:56:53;;;;;;;33.43;14.97;;;;;;;-0.53;57.61;98816.53;124092;1108;104418;-80
2021/03/21 07:59:23;;;;;;;36.33;15.63;;;;;;;-0.37;57.68;98818.64;123949;1108;104271;-81
2021/03/21 08:01:52;;;;;;;37.87;16.70;;;;;;;-0.26;58.01;98803.48;124039;1109;103997;-79
2021/03/21 08:04:23;;;;;;;33.27;16.40;;;;;;;-0.07;58.04;98801.11;124053;1108;104170;-79
2021/03/21 08:07:25;;;;;;;35.57;15.23;;;;;;;0.11;58.41;98791.78;123992;1107;104217;-81
2021/03/21 08:09:54;;;;;;;35.55;16.00;;;;;;;0.31;58.16;98781.52;123793;1109;104245;-76
2021/03/21 08:12:21;;;;;;;32.17;14.23;;;;;;;0.41;57.59;98772.45;123802;1108;104328;-79
2021/03/21 08:15:17;;;;;;;32.60;14.23;;;;;;;0.57;58.07;98777.98;124031;1109;104262;-79
2021/03/21 08:18:23;;;;;;;28.80;13.20;;;;;;;0.78;57.70;98765.02;123979;1108;104163;-76
2021/03/21 08:20:55;;;;;;;31.50;13.80;;;;;;;1.07;57.67;98758.64;123957;1108;104541;-75
2021/03/21 08:23:28;;;;;;;33.30;13.90;;;;;;;1.25;57.66;98759.69;123790;1109;104181;-76
2021/03/21 08:26:05;;;;;;;29.82;13.35;;;;;;;1.45;56.78;98758.05;125895;1107;102164;-76
2021/03/21 08:28:38;;;;;;;28.83;13.13;;;;;;;1.65;57.18;98759.86;125962;1108;101942;-75
2021/03/21 08:31:08;;;;;;;31.03;13.87;;;;;;;1.77;57.34;98741.01;125905;1109;101856;-75
2021/03/21 08:33:41;;;;;;;30.23;14.43;;;;;;;2.04;57.60;98737.25;125950;1108;102116;-75
2021/03/21 08:36:18;;;;;;;28.53;13.30;;;;;;;2.32;57.38;98726.41;125933;1108;103691;-74
2021/03/21 08:39:13;;;;;;;30.43;13.70;;;;;;;2.56;56.77;98728.00;125054;1109;101902;-74
2021/03/21 08:41:48;;;;;;;26.57;12.00;;;;;;;3.84;56.05;98721.91;123876;1109;104192;-72
2021/03/21 08:44:41;;;;;;;24.50;10.83;;;;;;;5.18;56.22;98713.07;123916;1106;104197;-74
2021/03/21 08:47:24;;;;;;;26.07;12.17;;;;;;;6.31;56.31;98702.20;123936;1108;104163;-77
2021/03/21 08:49:55;;;;;;;26.37;11.63;;;;;;;7.23;56.19;98700.84;123967;1109;104245;-74
2021/03/21 08:52:40;;;;;;;25.57;11.57;;;;;;;7.90;55.44;98694.66;123914;1106;104233;-75
2021/03/21 08:55:36;;;;;;;24.00;11.37;;;;;;;8.62;55.90;98695.09;123917;1109;104227;-77
2021/03/21 08:58:21;;;;;;;27.50;12.60;;;;;;;8.91;54.88;98695.67;123878;1109;104241;-76
2021/03/21 09:00:49;;;;;;;26.97;12.70;;;;;;;9.48;55.45;98681.86;123918;1109;104682;-75
2021/03/21 09:03:36;;;;;;;26.67;13.53;;;;;;;9.81;55.44;98672.31;123887;1108;104287;-75
2021/03/21 09:06:04;;;;;;;27.17;13.10;;;;;;;9.94;55.42;98670.42;123885;1108;104226;-75
2021/03/21 09:08:37;;;;;;;25.70;13.17;;;;;;;10.03;55.79;98668.86;123909;1109;104261;-77
2021/03/21 09:11:06;;;;;;;26.23;13.20;;;;;;;10.00;55.53;98666.44;123832;1108;104304;-76
2021/03/21 09:13:35;;;;;;;25.15;13.70;;;;;;;9.78;55.63;98667.27;123934;1109;104272;-76
2021/03/21 09:16:08;;;;;;;25.17;13.20;;;;;;;9.54;55.05;98654.86;123846;1109;104774;-78
2021/03/21 09:18:42;;;;;;;26.83;14.17;;;;;;;9.39;55.35;98662.16;123822;1109;104271;-78
2021/03/21 09:21:17;;;;;;;24.23;12.17;;;;;;;9.31;55.06;98652.13;123967;1109;104258;-75
2021/03/21 09:23:53;;;;;;;25.40;13.57;;;;;;;9.31;55.18;98652.13;123602;1109;104191;-76
2021/03/21 09:26:20;;;;;;;25.93;13.90;;;;;;;9.32;54.78;98653.83;123794;1108;104217;-79
2021/03/21 09:29:00;;;;;;;23.63;11.40;;;;;;;9.37;54.70;98648.16;123854;1108;104178;-79
2021/03/21 09:31:29;;;;;;;20.67;10.03;;;;;;;9.17;53.43;98644.33;123913;1109;104342;-77
2021/03/21 09:34:27;;;;;;;25.43;11.40;;;;;;;8.98;53.59;98634.22;124034;1109;104313;-76
2021/03/21 09:37:09;;;;;;;22.63;11.30;;;;;;;9.03;54.47;98627.61;123981;1108;104258;-79
2021/03/21 09:39:49;;;;;;;22.17;10.97;;;;;;;9.19;54.02;98624.67;123976;1107;104214;-77
2021/03/21 09:42:16;;;;;;;23.57;10.63;;;;;;;9.35;53.81;98623.53;124054;1109;104276;-79
2021/03/21 09:44:45;;;;;;;24.57;12.00;;;;;;;9.51;53.11;98616.13;123931;1109;104306;-83
2021/03/21 09:47:38;;;;;;;21.93;10.27;;;;;;;9.71;52.69;98610.26;124192;1109;104248;-80
2021/03/21 09:50:47;;;;;;;24.10;11.70;;;;;;;9.81;53.34;98606.77;124088;1109;104255;-82
2021/03/21 09:53:37;;;;;;;22.47;10.90;;;;;;;9.90;53.01;98599.89;123902;1112;104635;-80
2021/03/21 09:56:30;;;;;;;25.23;12.17;;;;;;;9.54;52.22;98599.10;123642;1111;104377;-80
2021/03/21 09:59:19;;;;;;;23.75;11.95;;;;;;;9.18;52.33;98588.48;123839;1112;104188;-80
2021/03/21 10:01:56;;;;;;;22.20;11.13;;;;;;;9.09;52.61;98597.15;123843;1108;104341;-79
2021/03/21 10:04:52;;;;;;;23.60;11.57;;;;;;;8.99;53.07;98591.66;123877;1109;104178;-77
2021/03/21 10:07:30;;;;;;;23.80;11.23;;;;;;;8.82;52.91;98584.94;123893;1109;104184;-81
2021/03/21 10:10:01;;;;;;;23.63;11.37;;;;;;;8.75;52.81;98570.46;123963;1108;104310;-79
2021/03/21 10:12:28;;;;;;;22.77;10.33;;;;;;;8.69;52.63;98571.73;123936;1108;104264;-80
2021/03/21 10:15:08;;;;;;;20.90;9.87;;;;;;;8.70;52.20;98568.13;123924;1109;104268;-77
2021/03/21 10:17:35;;;;;;;24.37;10.40;;;;;;;8.57;51.96;98565.53;123941;1109;104189;-80
2021/03/21 10:20:03;;;;;;;19.93;8.57;;;;;;;8.43;52.08;98581.55;123871;1109;104264;-81
2021/03/21 10:22:31;;;;;;;22.50;9.33;;;;;;;8.39;52.57;98574.77;123886;1108;104262;-78
2021/03/21 10:25:08;;;;;;;22.87;9.50;;;;;;;8.19;52.05;98572.58;123787;1107;104192;-77
2021/03/21 10:27:40;;;;;;;19.80;8.10;;;;;;;8.20;52.16;98558.38;123890;1109;104259;-77
2021/03/21 10:30:20;;;;;;;21.63;8.73;;;;;;;8.21;51.36;98553.94;123864;1108;104642;-77
2021/03/21 10:33:13;;;;;;;20.93;8.73;;;;;;;8.10;51.52;98544.12;123882;1109;104245;-77
2021/03/21 10:35:43;;;;;;;22.53;9.07;;;;;;;7.73;51.98;98549.35;123865;1108;104171;-78
2021/03/21 10:38:31;;;;;;;22.30;9.13;;;;;;;7.62;51.97;98543.94;123875;1108;104197;-73
2021/03/21 10:40:58;;;;;;;20.80;8.60;;;;;;;7.74;51.56;98543.94;123880;1108;104178;-74
2021/03/21 10:43:25;;;;;;;20.72;8.83;;;;;;;7.78;50.94;98547.20;123876;1108;104179;-75
2021/03/21 10:45:55;;;;;;;19.93;8.73;;;;;;;7.78;51.45;98541.08;123882;1109;104156;-77
2021/03/21 10:48:25;;;;;;;21.60;8.97;;;;;;;7.75;50.76;98545.63;123933;1109;104291;-75
2021/03/21 10:50:55;;;;;;;21.43;8.67;;;;;;;7.78;51.21;98541.91;123859;1109;104175;-72
2021/03/21 10:53:25;;;;;;;21.70;9.27;;;;;;;7.71;50.73;98533.56;123917;1108;104162;-70
2021/03/21 10:56:13;;;;;;;18.37;7.97;;;;;;;7.56;50.72;98539.90;123940;1108;104181;-74
2021/03/21 10:58:46;;;;;;;20.55;8.50;;;;;;;7.44;50.69;98531.01;123958;1108;104175;-74
2021/03/21 11:01:22;;;;;;;21.50;9.50;;;;;;;7.34;49.98;98529.94;124009;1109;104354;-75
2021/03/21 11:04:19;;;;;;;22.80;9.10;;;;;;;7.21;49.51;98520.20;123815;1109;104191;-76
2021/03/21 11:06:58;;;;;;;21.40;8.90;;;;;;;7.07;49.59;98526.44;123911;1108;104194;-77
2021/03/21 11:09:32;;;;;;;21.53;8.77;;;;;;;7.12;50.52;98516.39;124060;1108;104187;-71
2021/03/21 11:12:03;;;;;;;20.27;8.10;;;;;;;7.28;49.41;98499.47;124029;1108;104162;-78
2021/03/21 11:14:34;;;;;;;21.20;8.60;;;;;;;7.36;50.01;98499.80;124053;1109;104169;-75
2021/03/21 11:17:17;;;;;;;21.07;9.47;;;;;;;7.41;49.62;98489.74;123988;1108;104315;-78
2021/03/21 11:19:55;;;;;;;19.47;7.40;;;;;;;7.30;48.66;98494.92;123970;1109;104179;-77
2021/03/21 11:22:35;;;;;;;18.77;7.40;;;;;;;7.06;49.49;98489.50;123919;1109;104261;-78
2021/03/21 11:25:14;;;;;;;20.90;9.13;;;;;;;6.91;49.95;98483.45;123932;1108;104156;-79
2021/03/21 11:27:48;;;;;;;19.80;8.40;;;;;;;6.86;49.87;98489.05;124022;1108;104185;-76
2021/03/21 11:30:26;;;;;;;19.07;7.10;;;;;;;6.72;49.60;98484.69;123953;1108;104211;-77
2021/03/21 11:33:27;;;;;;;20.37;7.93;;;;;;;6.60;49.41;98485.48;123984;1109;104261;-70
2021/03/21 11:36:11;;;;;;;21.67;8.07;;;;;;;6.47;49.03;98481.00;123984;1109;104162;-72
2021/03/21 11:38:41;;;;;;;18.43;7.67;;;;;;;6.45;49.13;98477.61;124037;1109;104271;-79
2021/03/21 11:41:38;;;;;;;21.27;8.67;;;;;;;6.45;49.13;98472.33;124061;1106;104349;-76
2021/03/21 11:44:22;;;;;;;19.73;7.70;;;;;;;6.35;48.42;98466.80;124024;1109;104246;-77
2021/03/21 11:46:50;;;;;;;;;;;;;;;6.06;47.99;98469.53;124101;1109;104319;-76
2021/03/21 11:49:21;;;;;;;19.53;7.33;;;;;;;5.87;48.60;98461.05;124052;1108;104268;-77
2021/03/21 11:51:58;;;;;;;18.13;7.47;;;;;;;5.74;48.60;98459.17;123997;1109;104182;-78
2021/03/21 11:54:29;;;;;;;18.80;7.67;;;;;;;5.58;48.33;98450.53;123922;1108;104643;-76
2021/03/21 11:57:13;;;;;;;19.25;8.40;;;;;;;5.49;48.44;98449.32;123954;1108;104245;-76
2021/03/21 12:00:22;;;;;;;18.55;7.60;;;;;;;5.38;48.18;98449.95;123981;1109;104159;-80
2021/03/21 12:03:32;;;;;;;22.47;7.87;;;;;;;5.24;48.05;98442.06;124036;1109;104300;-76
2021/03/21 12:06:38;;;;;;;20.27;7.57;;;;;;;5.15;47.82;98444.31;123743;1112;104178;-77
2021/03/21 12:09:47;;;;;;;22.07;8.63;;;;;;;5.11;47.96;98442.80;123983;1109;104240;-77